• Join FlightAware (Why Join?)
  • Login
  • US Flag 
05:13PM EDT


 

Airport Tracker/Info


-or-


 

Live Flight TrackerFlight Track Log ✈ QLK115 ✈ 27-Sep-2013 ✈ YCFS - YSSY / SYD

Flight Track Log - Related Links

Times and Time Zones

All times are in EDT time to prevent confusion due to time zone crossing. See the QLK115 flight status page for this flight to view local times or setup timezone preferences in your user account.

Time Position Orientation Groundspeed Altitude Reporting Facility
EDT Latitude Longitude Course Direction KTS MPH feet Rate Location/Type
05:31AM -30.4069 153.0410 185° South 18,000  Level Aus ATC (Calculated)
05:32AM -30.4220 153.0394 215° Southwest 173 199 4,800 -7,320 Descending Aus ATC (RADAR)
05:33AM -30.4588 153.0094 215° Southwest 180 207 6,200 1,680 Climbing Aus ATC (RADAR)
05:33AM -30.4835 152.9969 204° Southwest 191 220 7,200 1,980 Climbing Aus ATC (RADAR)
05:34AM -30.5136 153.0002 175° South 211 243 8,200 1,920 Climbing Aus ATC (RADAR)
05:34AM -30.5555 153.0034 176° South 203 234 9,600 1,740 Climbing Aus ATC (RADAR)
05:35AM -30.5888 153.0040 179° South 205 236 10,500 1,620 Climbing Aus ATC (RADAR)
05:36AM -30.6357 152.9981 186° South 203 234 11,900 1,320 Climbing Aus ATC (RADAR)
05:36AM -30.6591 152.9966 183° South 203 234 12,200 1,080 Climbing Aus ATC (RADAR)
05:37AM -30.6930 152.9955 182° South 208 239 13,000 1,200 Climbing Aus ATC (RADAR)
05:38AM -30.7462 152.9927 183° South 211 243 14,000 1,200 Climbing Aus ATC (RADAR)
05:38AM -30.7755 152.9900 185° South 211 243 14,700 1,200 Climbing Aus ATC (RADAR)
05:39AM -30.8096 152.9881 183° South 211 243 15,300 1,080 Climbing Aus ATC (RADAR)
05:39AM -30.8469 152.9691 204° Southwest 198 228 16,200 1,200 Climbing Aus ATC (RADAR)
05:40AM -30.8695 152.9439 224° Southwest 194 223 16,900 1,080 Climbing Aus ATC (RADAR)
05:41AM -30.9009 152.9136 220° Southwest 196 226 17,700 960 Climbing Aus ATC (RADAR)
05:41AM -30.9150 152.8999 220° Southwest 197 227 18,000 1,080 Climbing Aus ATC (RADAR)
05:42AM -30.9393 152.8757 221° Southwest 198 228 18,700 720 Climbing Aus ATC (RADAR)
05:43AM -30.9822 152.8337 220° Southwest 206 237 19,200 300 Climbing Aus ATC (RADAR)
05:43AM -31.0021 152.8142 220° Southwest 221 254 19,200  Level Aus ATC (RADAR)
05:44AM -31.0313 152.7857 220° Southwest 234 269 19,200  Level Aus ATC (RADAR)
05:44AM -31.0712 152.7467 220° Southwest 250 288 19,200  Level Aus ATC (RADAR)
05:45AM -31.1029 152.7157 220° Southwest 256 295 19,200  Level Aus ATC (RADAR)
05:46AM -31.1440 152.6755 220° Southwest 259 298 19,200  Level Aus ATC (RADAR)
05:46AM -31.1673 152.6535 219° Southwest 258 297 19,200  Level Aus ATC (RADAR)
05:47AM -31.1999 152.6214 220° Southwest 263 303 19,200  Level Aus ATC (RADAR)
05:48AM -31.2461 152.5757 220° Southwest 263 303 19,200  Level Aus ATC (RADAR)
05:48AM -31.2694 152.5528 220° Southwest 264 304 19,200  Level Aus ATC (RADAR)
05:49AM -31.3063 152.5160 220° Southwest 263 303 19,200  Level Aus ATC (RADAR)
05:49AM -31.3483 152.4743 220° Southwest 264 304 19,200  Level Aus ATC (RADAR)
05:50AM -31.3807 152.4425 220° Southwest 263 303 19,200  Level Aus ATC (RADAR)
05:51AM -31.4131 152.4095 221° Southwest 264 304 19,200  Level Aus ATC (RADAR)
05:51AM -31.4409 152.3824 220° Southwest 261 300 19,200  Level Aus ATC (RADAR)
05:52AM -31.4735 152.3498 220° Southwest 264 304 19,200  Level Aus ATC (RADAR)
05:52AM -31.5205 152.3028 220° Southwest 270 311 19,200  Level Aus ATC (RADAR)
05:53AM -31.5530 152.2711 220° Southwest 264 304 19,200  Level Aus ATC (RADAR)
05:54AM -31.5855 152.2385 220° Southwest 264 304 19,200  Level Aus ATC (RADAR)
05:54AM -31.6274 152.1963 221° Southwest 266 306 19,200  Level Aus ATC (RADAR)
05:55AM -31.6510 152.1731 220° Southwest 268 308 19,200  Level Aus ATC (RADAR)
05:55AM -31.6834 152.1403 221° Southwest 266 306 19,200  Level Aus ATC (RADAR)
05:56AM -31.7255 152.0982 220° Southwest 267 307 19,200  Level Aus ATC (RADAR)
05:57AM -31.7580 152.0658 220° Southwest 263 303 19,200  Level Aus ATC (RADAR)
05:57AM -31.7999 152.0240 220° Southwest 263 303 19,200  Level Aus ATC (RADAR)
05:58AM -31.8322 151.9911 221° Southwest 264 304 19,200  Level Aus ATC (RADAR)
05:59AM -31.8649 151.9583 220° Southwest 266 306 19,200  Level Aus ATC (RADAR)
05:59AM -31.8971 151.9254 221° Southwest 263 303 19,200 -120 Level Aus ATC (RADAR)
06:00AM -31.9346 151.8885 220° Southwest 264 304 19,100 -120 Descending Aus ATC (RADAR)
06:00AM -31.9666 151.8559 221° Southwest 259 298 19,100  Level Aus ATC (RADAR)
06:01AM -32.0084 151.8138 220° Southwest 260 299 19,100  Level Aus ATC (RADAR)
06:02AM -32.0315 151.7897 221° Southwest 260 299 19,100  Level Aus ATC (RADAR)
06:02AM -32.0642 151.7576 220° Southwest 258 297 19,100  Level Aus ATC (RADAR)
06:03AM -32.1012 151.7198 221° Southwest 260 299 19,100  Level Aus ATC (RADAR)
06:03AM -32.1291 151.6906 221° Southwest 265 305 19,100  Level Aus ATC (RADAR)
06:04AM -32.1618 151.6581 220° Southwest 265 305 19,100  Level Aus ATC (RADAR)
06:05AM -32.1980 151.6208 221° Southwest 258 297 19,100  Level Aus ATC (RADAR)
06:05AM -32.2299 151.5876 221° Southwest 258 297 19,100  Level Aus ATC (RADAR)
06:06AM -32.2621 151.5549 221° Southwest 258 297 19,100  Level Aus ATC (RADAR)
06:06AM -32.2941 151.5218 221° Southwest 259 298 19,100  Level Aus ATC (RADAR)
06:07AM -32.3265 151.4894 220° Southwest 258 297 19,100  Level Aus ATC (RADAR)
06:08AM -32.3725 151.4427 221° Southwest 257 296 19,100  Level Aus ATC (RADAR)
06:08AM -32.3910 151.4243 220° Southwest 258 297 19,100  Level Aus ATC (RADAR)
06:09AM -32.4142 151.3994 222° Southwest 265 305 19,100  Level Aus ATC (RADAR)
06:09AM -32.4506 151.3627 220° Southwest 257 296 19,100  Level Aus ATC (RADAR)
06:10AM -32.4918 151.3206 221° Southwest 257 296 19,100  Level Aus ATC (RADAR)
06:11AM -32.5240 151.2877 221° Southwest 257 296 19,100  Level Aus ATC (RADAR)
06:11AM -32.5651 151.2561 213° Southwest 264 304 19,100  Level Aus ATC (RADAR)
06:12AM -32.5982 151.2533 184° South 270 311 19,100  Level Aus ATC (RADAR)
06:12AM -32.6526 151.2527 181° South 282 325 19,100  Level Aus ATC (RADAR)
06:13AM -32.7254 151.2483 183° South 283 326 19,100  Level Aus ATC (RADAR)
06:14AM -32.7581 151.2460 183° South 281 323 19,100  Level Aus ATC (RADAR)
06:14AM -32.8044 151.2437 182° South 282 325 19,100  Level Aus ATC (RADAR)
06:15AM -32.8572 151.2415 182° South 287 330 19,100  Level Aus ATC (RADAR)
06:15AM -32.9038 151.2387 183° South 288 331 19,100  Level Aus ATC (RADAR)
06:16AM -32.9503 151.2361 183° South 287 330 19,100 -600 Level Aus ATC (RADAR)
06:17AM -32.9963 151.2332 183° South 279 321 18,400 -1,320 Descending Aus ATC (RADAR)
06:17AM -33.0351 151.2317 182° South 283 326 17,700 -1,560 Descending Aus ATC (RADAR)
06:18AM -33.0942 151.2278 183° South 284 327 16,500 -1,620 Descending Aus ATC (RADAR)
06:18AM -33.1398 151.2252 183° South 282 325 15,600 -1,560 Descending Aus ATC (RADAR)
06:19AM -33.1924 151.2234 182° South 284 327 14,600 -1,500 Descending Aus ATC (RADAR)
06:20AM -33.2517 151.2199 183° South 285 328 13,500 -1,500 Descending Aus ATC (RADAR)
06:20AM -33.2844 151.2180 183° South 284 327 12,900 -1,500 Descending Aus ATC (RADAR)
06:21AM -33.3292 151.2150 183° South 280 322 12,000 -1,620 Descending Aus ATC (RADAR)
06:22AM -33.3882 151.2124 182° South 284 327 10,800 -1,500 Descending Aus ATC (RADAR)
06:22AM -33.4333 151.2100 183° South 279 321 10,000 -1,500 Descending Aus ATC (RADAR)
06:23AM -33.4840 151.2073 183° South 275 316 9,000 -1,560 Descending Aus ATC (RADAR)
06:23AM -33.5282 151.2047 183° South 272 313 8,100 -1,560 Descending Aus ATC (RADAR)
06:24AM -33.5717 151.2024 183° South 270 311 7,200 -1,500 Descending Aus ATC (RADAR)
06:25AM -33.6145 151.2000 183° South 264 304 6,400 -1,140 Descending Aus ATC (RADAR)
06:25AM -33.6507 151.1978 183° South 262 302 6,000 -420 Descending Aus ATC (RADAR)
06:26AM -33.6921 151.1914 187° South 257 296 6,000  Level Aus ATC (RADAR)
06:26AM -33.7331 151.1832 189° South 256 295 6,000  Level Aus ATC (RADAR)
06:27AM -33.7670 151.1739 193° South 250 288 6,000  Level Aus ATC (RADAR)
06:27AM -33.8047 151.1565 201° Southwest 247 284 6,000  Level Aus ATC (RADAR)
06:28AM -33.8627 151.1337 198° South 238 274 6,000  Level Aus ATC (RADAR)
06:29AM -33.8889 151.1241 197° South 236 272 6,000  Level Aus ATC (RADAR)
06:29AM -33.9258 151.1098 198° South 239 275 6,000  Level Aus ATC (RADAR)
06:30AM -33.9733 151.0913 198° South 237 273 6,000  Level Aus ATC (RADAR)
06:31AM -34.0051 151.0793 197° South 238 274 6,000  Level Aus ATC (RADAR)
06:31AM -34.0433 151.0711 190° South 247 284 6,000  Level Aus ATC (RADAR)
06:32AM -34.0873 151.0877 163° South 248 285 6,000 -420 Level Aus ATC (RADAR)
06:32AM -34.1261 151.0988 167° South 244 281 5,500 -960 Descending Aus ATC (RADAR)
06:33AM -34.1812 151.1142 167° South 244 281 4,700 -840 Descending Aus ATC (RADAR)
06:34AM -34.2393 151.1313 166° South 228 262 4,100 -720 Descending Aus ATC (RADAR)
06:35AM -34.2470 151.1574 110° East 197 227 3,800 -540 Descending Aus ATC (RADAR)
06:35AM -34.2455 151.1905 87° East 166 191 3,600 -480 Descending Aus ATC (RADAR)
06:36AM -34.2139 151.2058 22° Northeast 168 193 3,200 -480 Descending Aus ATC (RADAR)
06:36AM -34.1873 151.2127 12° North 166 191 3,000 -180 Descending Aus ATC (RADAR)
06:37AM -34.1533 151.2207 11° North 165 190 3,000  Level Aus ATC (RADAR)
06:38AM -34.1380 151.2238 North 166 191 3,000 -240 Level Aus ATC (RADAR)
06:38AM -34.1023 151.2160 350° North 175 201 2,800 -600 Descending Aus ATC (RADAR)
06:39AM -34.0737 151.2090 348° North 153 176 2,200 -900 Descending Aus ATC (RADAR)
06:39AM -34.0493 151.2027 348° North 153 176 1,700 -780 Descending Aus ATC (RADAR)
06:40AM -34.0214 151.1954 348° North 132 152 1,200 -720 Descending Aus ATC (RADAR)
06:41AM -34.0084 151.1922 348° North 115 132 900 -600 Descending Aus ATC (RADAR)
06:41AM -33.9905 151.1874 348° North 112 129 600 -540 Descending Aus ATC (RADAR)
06:42AM -33.9695 151.1820 348° North 103 119 200 -240 Descending Aus ATC (RADAR)
06:43AM -33.9435 151.1771 351° North 44 51 100 -120 Descending Aus ATC (RADAR)